createdAt,value
2022-11-27T00:00:17.787Z,67.20
2022-11-27T00:03:41.269Z,70.40
2022-11-27T00:06:43.614Z,73.03
2022-11-27T00:09:45.446Z,67.10
2022-11-27T00:12:47.625Z,75.37
2022-11-27T00:15:49.519Z,71.93
2022-11-27T00:18:51.713Z,69.57
2022-11-27T00:21:53.562Z,68.17
2022-11-27T00:24:55.664Z,73.63
2022-11-27T00:27:57.598Z,83.60
2022-11-27T00:31:00.960Z,88.53
2022-11-27T00:34:05.628Z,78.93
2022-11-27T00:37:07.735Z,78.03
2022-11-27T00:40:10.025Z,77.43
2022-11-27T00:43:12.160Z,76.67
2022-11-27T00:46:20.075Z,78.77
2022-11-27T00:49:23.820Z,79.20
2022-11-27T00:52:25.586Z,77.90
2022-11-27T00:55:27.802Z,80.27
2022-11-27T00:58:30.605Z,83.97
2022-11-27T01:01:41.402Z,82.53
2022-11-27T01:04:46.177Z,82.37
2022-11-27T01:07:48.719Z,83.07
2022-11-27T01:10:54.875Z,81.63
2022-11-27T01:13:59.992Z,85.63
2022-11-27T01:17:02.078Z,83.93
2022-11-27T01:20:04.554Z,87.87
2022-11-27T01:23:07.418Z,81.67
2022-11-27T01:26:11.013Z,90.73
2022-11-27T01:29:13.100Z,84.97
2022-11-27T01:32:15.234Z,80.43
2022-11-27T01:35:17.106Z,89.47
2022-11-27T01:38:19.201Z,90.30
2022-11-27T01:41:32.590Z,87.97
2022-11-27T01:44:37.966Z,88.33
2022-11-27T01:47:47.994Z,89.03
2022-11-27T01:50:50.202Z,87.57
2022-11-27T01:53:54.831Z,94.43
2022-11-27T01:57:02.721Z,90.23
2022-11-27T02:00:09.077Z,90.00
2022-11-27T02:03:11.504Z,92.90
2022-11-27T02:06:14.298Z,94.00
2022-11-27T02:09:17.896Z,96.87
2022-11-27T02:12:51.578Z,103.63
2022-11-27T02:16:09.667Z,90.77
2022-11-27T02:19:21.472Z,89.67
2022-11-27T02:22:57.858Z,84.63
2022-11-27T02:26:21.092Z,89.03
2022-11-27T02:29:24.850Z,90.00
2022-11-27T02:32:37.853Z,88.80
2022-11-27T02:35:43.557Z,87.70
2022-11-27T02:39:00.033Z,82.57
2022-11-27T02:42:15.197Z,85.20
2022-11-27T02:45:25.716Z,78.07
2022-11-27T02:48:34.148Z,78.10
2022-11-27T02:51:40.402Z,75.13
2022-11-27T02:54:45.711Z,80.23
2022-11-27T02:57:52.312Z,75.33
2022-11-27T03:00:55.966Z,80.50
2022-11-27T03:03:59.862Z,70.57
2022-11-27T03:07:07.049Z,74.97
2022-11-27T03:10:23.819Z,70.87
2022-11-27T03:13:26.124Z,69.27
2022-11-27T03:16:49.486Z,75.63
2022-11-27T03:20:08.871Z,70.80
2022-11-27T03:23:10.718Z,69.63
2022-11-27T03:26:12.824Z,67.03
2022-11-27T03:29:44.358Z,68.90
2022-11-27T03:32:46.918Z,59.23
2022-11-27T03:35:49.054Z,63.77
2022-11-27T03:38:52.787Z,68.57
2022-11-27T03:42:06.450Z,72.13
2022-11-27T03:45:37.925Z,78.77
2022-11-27T03:49:06.845Z,80.70
2022-11-27T03:52:24.886Z,68.00
2022-11-27T03:55:56.852Z,62.43
2022-11-27T03:59:17.434Z,61.80
2022-11-27T04:02:31.408Z,63.93
2022-11-27T04:05:33.550Z,64.17
2022-11-27T04:08:35.381Z,63.47
2022-11-27T04:11:37.612Z,61.03
2022-11-27T04:14:39.590Z,60.30
2022-11-27T04:17:41.891Z,57.93
2022-11-27T04:20:44.118Z,58.20
2022-11-27T04:23:46.289Z,65.10
2022-11-27T04:26:48.064Z,57.47
2022-11-27T04:29:50.158Z,61.37
2022-11-27T04:32:51.970Z,61.90
2022-11-27T04:35:54.174Z,60.13
2022-11-27T04:38:56.012Z,63.60
2022-11-27T04:41:58.115Z,59.77
2022-11-27T04:45:00.048Z,61.90
2022-11-27T04:48:02.188Z,61.93
2022-11-27T04:51:04.229Z,58.13
2022-11-27T04:54:06.547Z,63.90
2022-11-27T04:57:08.406Z,60.57
2022-11-27T05:00:11.201Z,64.20
2022-11-27T05:03:13.117Z,58.60
2022-11-27T05:06:15.352Z,61.70
2022-11-27T05:09:18.065Z,61.70
2022-11-27T05:12:20.381Z,67.73
2022-11-27T05:15:22.203Z,61.87
2022-11-27T05:18:24.573Z,58.33
2022-11-27T05:21:28.580Z,60.90
2022-11-27T05:24:30.705Z,58.97
2022-11-27T05:27:32.483Z,67.13
2022-11-27T05:30:37.401Z,57.90
2022-11-27T05:33:39.378Z,58.93
2022-11-27T05:36:49.625Z,57.37
2022-11-27T05:39:51.487Z,60.60
2022-11-27T05:42:53.707Z,59.17
2022-11-27T05:45:57.719Z,61.43
2022-11-27T05:48:59.945Z,61.07
2022-11-27T05:52:01.761Z,57.77
2022-11-27T05:55:06.291Z,58.87
2022-11-27T05:58:09.776Z,56.23
2022-11-27T06:01:14.005Z,59.20
2022-11-27T06:04:15.835Z,55.13
2022-11-27T06:07:18.046Z,57.73
2022-11-27T06:10:22.195Z,56.30
2022-11-27T06:13:24.368Z,51.77
2022-11-27T06:16:26.305Z,53.60
2022-11-27T06:19:28.877Z,51.87
2022-11-27T06:22:31.451Z,54.47
2022-11-27T06:25:33.803Z,55.50
2022-11-27T06:28:35.689Z,59.27
2022-11-27T06:31:38.191Z,74.37
2022-11-27T06:34:40.300Z,75.17
2022-11-27T06:37:42.600Z,67.67
2022-11-27T06:40:44.431Z,54.80
2022-11-27T06:43:46.591Z,52.93
2022-11-27T06:46:49.307Z,56.57
2022-11-27T06:49:53.602Z,52.57
2022-11-27T06:52:55.593Z,60.80
2022-11-27T06:55:57.807Z,57.53
2022-11-27T06:59:02.059Z,56.17
2022-11-27T07:02:04.217Z,57.40
2022-11-27T07:05:06.218Z,54.00
2022-11-27T07:08:08.423Z,53.43
2022-11-27T07:11:16.577Z,60.83
2022-11-27T07:14:18.658Z,60.50
2022-11-27T07:17:22.844Z,62.80
2022-11-27T07:20:27.400Z,62.70
2022-11-27T07:23:30.665Z,57.07
2022-11-27T07:26:32.881Z,59.10
2022-11-27T07:29:34.669Z,60.60
2022-11-27T07:32:36.910Z,54.60
2022-11-27T07:35:38.705Z,63.57
2022-11-27T07:38:41.271Z,56.73
2022-11-27T07:41:44.606Z,61.33
2022-11-27T07:44:46.839Z,57.87
2022-11-27T07:47:50.032Z,59.50
2022-11-27T07:50:52.134Z,54.87
2022-11-27T07:53:54.036Z,53.30
2022-11-27T07:56:56.090Z,56.33
2022-11-27T07:59:57.881Z,52.07
2022-11-27T08:03:00.475Z,52.13
2022-11-27T08:06:02.353Z,53.03
2022-11-27T08:09:04.964Z,54.33
2022-11-27T08:12:09.819Z,49.50
2022-11-27T08:15:12.264Z,50.27
2022-11-27T08:18:14.174Z,50.03
2022-11-27T08:21:16.294Z,47.97
2022-11-27T08:24:18.117Z,50.10
2022-11-27T08:27:20.651Z,46.10
2022-11-27T08:30:23.761Z,51.00
2022-11-27T08:33:25.883Z,55.23
2022-11-27T08:36:28.441Z,60.83
2022-11-27T08:39:31.811Z,62.70
2022-11-27T08:42:33.706Z,55.03
2022-11-27T08:45:39.654Z,59.47
2022-11-27T08:48:42.018Z,52.07
2022-11-27T08:51:44.169Z,50.00
2022-11-27T08:54:46.630Z,46.80
2022-11-27T08:57:48.977Z,49.90
2022-11-27T09:00:50.811Z,53.10
2022-11-27T09:03:53.576Z,54.37
2022-11-27T09:06:58.355Z,49.43
2022-11-27T09:10:00.908Z,51.87
2022-11-27T09:13:02.698Z,48.97
2022-11-27T09:16:06.593Z,45.50
2022-11-27T09:19:08.424Z,38.23
2022-11-27T09:22:10.599Z,46.20
2022-11-27T09:25:12.647Z,41.30
2022-11-27T09:28:14.826Z,36.37
2022-11-27T09:31:19.561Z,37.23
2022-11-27T09:34:21.693Z,39.63
2022-11-27T09:37:23.478Z,37.30
2022-11-27T09:40:25.901Z,35.73
2022-11-27T09:43:31.613Z,44.43
2022-11-27T09:46:39.195Z,31.40
2022-11-27T09:49:43.591Z,26.37
2022-11-27T09:53:11.848Z,26.73
2022-11-27T09:56:17.645Z,27.37
2022-11-27T09:59:23.817Z,26.80
2022-11-27T10:02:32.075Z,28.30
2022-11-27T10:05:49.658Z,30.03
2022-11-27T10:09:17.660Z,24.13
2022-11-27T10:12:49.649Z,28.60
2022-11-27T10:16:02.076Z,28.40
2022-11-27T10:19:25.424Z,27.10
2022-11-27T10:22:51.592Z,24.83
2022-11-27T10:26:22.182Z,26.80
2022-11-27T10:29:47.237Z,28.87
2022-11-27T10:32:57.151Z,24.93
2022-11-27T10:36:01.119Z,27.87
2022-11-27T10:39:04.743Z,23.13
2022-11-27T10:42:10.656Z,27.37
2022-11-27T10:45:48.706Z,25.83
2022-11-27T10:48:50.813Z,27.10
2022-11-27T10:51:52.987Z,26.97
2022-11-27T10:55:02.258Z,29.93
2022-11-27T10:58:55.952Z,22.10
2022-11-27T11:03:00.799Z,24.67
2022-11-27T11:15:26.228Z,25.73
2022-11-27T11:18:34.792Z,25.10
2022-11-27T11:21:42.421Z,25.57
2022-11-27T11:24:51.012Z,27.10
2022-11-27T11:27:53.090Z,24.23
2022-11-27T11:31:01.727Z,26.67
2022-11-27T11:34:14.328Z,25.80
2022-11-27T11:37:29.607Z,25.20
2022-11-27T11:40:33.521Z,26.13
2022-11-27T11:43:39.585Z,27.00
2022-11-27T11:46:50.511Z,28.80
2022-11-27T11:49:54.953Z,26.77
2022-11-27T11:53:22.527Z,24.10
2022-11-27T11:56:33.009Z,22.93
2022-11-27T12:00:03.729Z,30.37
2022-11-27T12:03:39.330Z,29.33
2022-11-27T12:06:51.374Z,26.60
2022-11-27T12:10:12.228Z,29.10
2022-11-27T12:13:33.410Z,26.13
2022-11-27T12:16:36.035Z,29.27
2022-11-27T12:19:46.682Z,29.33
2022-11-27T12:23:19.416Z,29.60
2022-11-27T12:26:45.645Z,30.10
2022-11-27T12:30:17.286Z,32.27
2022-11-27T12:33:28.184Z,28.00
2022-11-27T12:37:01.464Z,30.43
2022-11-27T12:40:11.899Z,30.17
2022-11-27T12:43:26.901Z,30.10
2022-11-27T12:46:49.696Z,29.23
2022-11-27T12:50:04.621Z,26.80
2022-11-27T12:53:16.761Z,27.03
2022-11-27T12:56:43.404Z,31.27
2022-11-27T13:00:01.959Z,31.37
2022-11-27T13:03:42.007Z,29.93
2022-11-27T13:07:05.663Z,30.00
2022-11-27T13:10:23.957Z,28.77
2022-11-27T13:13:31.464Z,28.80
2022-11-27T13:16:45.662Z,30.27
2022-11-27T13:19:50.143Z,28.43
2022-11-27T13:22:52.357Z,27.67
2022-11-27T13:25:57.029Z,30.50
2022-11-27T13:29:02.629Z,30.30
2022-11-27T13:32:06.550Z,29.57
2022-11-27T13:35:28.490Z,31.50
2022-11-27T13:38:34.253Z,32.93
2022-11-27T13:41:43.747Z,36.97
2022-11-27T13:44:56.479Z,34.00
2022-11-27T13:48:01.273Z,36.33
2022-11-27T13:51:05.797Z,31.40
2022-11-27T13:54:13.561Z,34.83
2022-11-27T13:57:17.128Z,34.83
2022-11-27T14:00:40.720Z,33.60
2022-11-27T14:03:44.637Z,36.03
2022-11-27T14:07:07.982Z,33.73
2022-11-27T14:10:22.228Z,34.70
2022-11-27T14:13:34.528Z,35.53
2022-11-27T14:16:39.020Z,35.73
2022-11-27T14:19:45.172Z,34.53
2022-11-27T14:26:15.957Z,35.63
2022-11-27T14:29:20.924Z,34.37
2022-11-27T14:32:23.103Z,31.80
2022-11-27T14:35:27.561Z,31.43
2022-11-27T14:38:31.603Z,34.07
2022-11-27T14:41:33.641Z,34.37
2022-11-27T14:44:35.803Z,32.40
2022-11-27T14:47:40.825Z,36.90
2022-11-27T14:50:43.035Z,33.67
2022-11-27T14:53:47.651Z,33.07
2022-11-27T14:56:50.270Z,32.37
2022-11-27T15:00:05.148Z,31.23
2022-11-27T15:03:09.270Z,31.33
2022-11-27T15:06:19.542Z,32.90
2022-11-27T15:09:31.887Z,33.60
2022-11-27T15:12:39.271Z,35.53
2022-11-27T15:15:44.817Z,34.30
2022-11-27T15:18:57.730Z,35.93
2022-11-27T15:21:59.932Z,29.50
2022-11-27T15:25:07.225Z,30.50
2022-11-27T15:28:50.797Z,32.10
2022-11-27T15:31:53.068Z,35.93
2022-11-27T15:34:55.293Z,41.87
2022-11-27T15:38:03.704Z,46.20
2022-11-27T15:41:05.888Z,43.50
2022-11-27T15:44:09.122Z,43.70
2022-11-27T15:47:32.013Z,43.77
2022-11-27T15:50:33.873Z,42.63
2022-11-27T15:53:35.933Z,49.13
2022-11-27T15:56:37.792Z,51.73
2022-11-27T15:59:39.919Z,56.40
2022-11-27T16:02:41.793Z,54.33
2022-11-27T16:05:44.020Z,53.80
2022-11-27T16:08:45.834Z,50.70
2022-11-27T16:11:49.133Z,61.33
2022-11-27T16:14:50.946Z,50.30
2022-11-27T16:17:53.709Z,54.23
2022-11-27T16:20:55.840Z,51.50
2022-11-27T16:24:03.473Z,52.87
2022-11-27T16:27:06.699Z,54.77
2022-11-27T16:30:09.273Z,57.50
2022-11-27T16:33:11.138Z,65.70
2022-11-27T16:36:16.390Z,73.07
2022-11-27T16:39:18.358Z,65.77
2022-11-27T16:42:20.492Z,62.87
2022-11-27T16:45:22.382Z,68.30
2022-11-27T16:48:24.571Z,84.73
2022-11-27T16:51:28.953Z,77.80
2022-11-27T16:54:31.077Z,81.60
2022-11-27T16:57:32.846Z,72.23
2022-11-27T17:00:35.003Z,64.40
2022-11-27T17:03:37.553Z,65.70
2022-11-27T17:06:39.946Z,61.97
2022-11-27T17:09:42.224Z,59.43
2022-11-27T17:12:44.349Z,61.77
2022-11-27T17:15:46.262Z,65.60
2022-11-27T17:18:48.653Z,68.67
2022-11-27T17:21:50.581Z,69.90
2022-11-27T17:24:55.161Z,71.70
2022-11-27T17:27:57.144Z,64.63
2022-11-27T17:30:59.243Z,64.67
2022-11-27T17:34:01.293Z,88.67
2022-11-27T17:37:03.497Z,83.57
2022-11-27T17:40:06.141Z,72.63
2022-11-27T17:43:08.296Z,69.97
2022-11-27T17:46:27.447Z,68.50
2022-11-27T17:49:29.569Z,69.47
2022-11-27T17:52:31.431Z,65.27
2022-11-27T17:55:34.660Z,63.20
2022-11-27T17:58:37.173Z,62.17
2022-11-27T18:01:39.613Z,64.37
2022-11-27T18:04:41.642Z,63.97
2022-11-27T18:07:46.446Z,63.77
2022-11-27T18:10:49.928Z,66.03
2022-11-27T18:13:52.461Z,60.17
2022-11-27T18:16:55.364Z,59.70
2022-11-27T18:19:58.936Z,63.10
2022-11-27T18:23:00.814Z,61.83
2022-11-27T18:26:07.794Z,58.67
2022-11-27T18:29:09.782Z,59.80
2022-11-27T18:32:14.020Z,57.07
2022-11-27T18:35:16.509Z,55.27
2022-11-27T18:38:18.637Z,65.40
2022-11-27T18:41:23.955Z,72.83
2022-11-27T18:44:29.278Z,74.73
2022-11-27T18:47:32.273Z,73.27
2022-11-27T18:50:35.310Z,63.27
2022-11-27T18:53:44.860Z,57.40
2022-11-27T18:56:47.221Z,52.30
2022-11-27T18:59:49.176Z,49.17
2022-11-27T19:02:51.291Z,53.67
2022-11-27T19:05:54.665Z,58.40
2022-11-27T19:08:58.238Z,58.70
2022-11-27T19:12:00.237Z,65.73
2022-11-27T19:15:02.336Z,59.73
2022-11-27T19:18:04.241Z,60.17
2022-11-27T19:21:16.901Z,59.77
2022-11-27T19:24:18.774Z,57.10
2022-11-27T19:27:21.145Z,66.23
2022-11-27T19:30:22.955Z,63.70
2022-11-27T19:33:25.332Z,60.70
2022-11-27T19:36:30.385Z,58.53
2022-11-27T19:39:32.514Z,61.60
2022-11-27T19:42:34.624Z,59.27
2022-11-27T19:45:37.383Z,72.37
2022-11-27T19:48:39.369Z,75.37
2022-11-27T19:51:41.565Z,55.03
2022-11-27T19:54:44.409Z,53.63
2022-11-27T19:57:46.617Z,53.07
2022-11-27T20:00:48.674Z,47.50
2022-11-27T20:03:52.323Z,53.20
2022-11-27T20:06:54.170Z,54.07
2022-11-27T20:09:56.309Z,48.73
2022-11-27T20:13:02.204Z,54.07
2022-11-27T20:16:13.822Z,64.17
2022-11-27T20:19:16.008Z,55.13
2022-11-27T20:22:18.126Z,53.57
2022-11-27T20:25:20.681Z,46.23
2022-11-27T20:28:22.974Z,48.50
2022-11-27T20:31:27.695Z,56.63
2022-11-27T20:34:31.187Z,50.47
2022-11-27T20:37:33.942Z,50.80
2022-11-27T20:40:38.889Z,62.33
2022-11-27T20:43:41.470Z,63.20
2022-11-27T20:46:50.995Z,56.23
2022-11-27T20:49:54.057Z,57.23
2022-11-27T20:52:56.211Z,61.63
2022-11-27T20:56:05.792Z,57.37
2022-11-27T20:59:08.036Z,57.07
2022-11-27T21:02:11.071Z,62.73
2022-11-27T21:05:13.432Z,58.10
2022-11-27T21:08:15.376Z,61.97
2022-11-27T21:11:27.363Z,62.77
2022-11-27T21:14:29.466Z,61.87
2022-11-27T21:17:31.836Z,54.37
2022-11-27T21:20:33.866Z,60.13
2022-11-27T21:23:36.103Z,52.03
2022-11-27T21:26:38.754Z,55.37
2022-11-27T21:29:41.115Z,53.93
2022-11-27T21:32:44.403Z,52.30
2022-11-27T21:35:46.475Z,51.40
2022-11-27T21:38:48.700Z,53.03
2022-11-27T21:41:54.028Z,52.77
2022-11-27T21:44:56.350Z,48.40
2022-11-27T21:47:58.518Z,48.30
2022-11-27T21:51:04.834Z,51.03
2022-11-27T21:54:08.905Z,51.30
2022-11-27T21:57:10.907Z,49.70
2022-11-27T22:00:14.637Z,45.43
2022-11-27T22:03:17.140Z,50.93
2022-11-27T22:06:25.340Z,50.17
2022-11-27T22:09:30.279Z,53.50
2022-11-27T22:12:32.703Z,53.83
2022-11-27T22:15:37.002Z,49.23
2022-11-27T22:18:39.833Z,59.20
2022-11-27T22:21:42.107Z,57.47
2022-11-27T22:24:44.502Z,52.73
2022-11-27T22:27:46.694Z,64.50
2022-11-27T22:30:49.113Z,58.63
2022-11-27T22:33:51.301Z,62.60
2022-11-27T22:36:55.513Z,64.70
2022-11-27T22:39:57.834Z,69.00
2022-11-27T22:43:00.410Z,71.17
2022-11-27T22:46:13.996Z,76.20
2022-11-27T22:49:18.659Z,75.40
2022-11-27T22:52:20.641Z,80.57
2022-11-27T22:55:22.877Z,84.17
2022-11-27T22:58:24.714Z,86.60
2022-11-27T23:01:26.949Z,91.43
2022-11-27T23:04:28.856Z,84.90
2022-11-27T23:07:31.630Z,87.77
2022-11-27T23:10:33.485Z,82.87
2022-11-27T23:13:36.002Z,84.07
2022-11-27T23:16:39.293Z,90.50
2022-11-27T23:19:41.469Z,81.03
2022-11-27T23:22:43.253Z,80.43
2022-11-27T23:25:45.503Z,82.30
2022-11-27T23:28:49.230Z,82.57
2022-11-27T23:31:51.526Z,82.60
2022-11-27T23:34:53.517Z,80.60
2022-11-27T23:37:55.734Z,76.43
2022-11-27T23:41:09.951Z,77.70
2022-11-27T23:44:12.125Z,72.23
2022-11-27T23:47:14.173Z,75.70
2022-11-27T23:50:16.292Z,75.33
2022-11-27T23:53:20.149Z,78.13
2022-11-27T23:56:27.627Z,76.97
2022-11-27T23:59:29.431Z,76.43
